createdAt,value
2023-05-10T00:00:56.990Z,11.81
2023-05-10T00:01:59.375Z,11.79
2023-05-10T00:03:01.468Z,11.82
2023-05-10T00:04:03.374Z,11.75
2023-05-10T00:05:06.126Z,11.86
2023-05-10T00:06:08.021Z,11.73
2023-05-10T00:07:11.262Z,11.77
2023-05-10T00:08:13.126Z,11.78
2023-05-10T00:09:15.023Z,11.67
2023-05-10T00:10:17.077Z,11.62
2023-05-10T00:11:20.401Z,11.73
2023-05-10T00:12:24.252Z,11.69
2023-05-10T00:13:26.442Z,11.69
2023-05-10T00:14:28.448Z,11.70
2023-05-10T00:15:31.608Z,11.86
2023-05-10T00:16:33.479Z,11.79
2023-05-10T00:17:36.047Z,11.75
2023-05-10T00:18:37.990Z,11.91
2023-05-10T00:19:39.885Z,11.84
2023-05-10T00:20:41.716Z,11.90
2023-05-10T00:21:43.605Z,11.73
2023-05-10T00:22:45.752Z,11.82
2023-05-10T00:23:47.570Z,11.94
2023-05-10T00:24:49.450Z,12.03
2023-05-10T00:25:51.401Z,11.73
2023-05-10T00:26:53.398Z,11.75
2023-05-10T00:27:56.387Z,11.81
2023-05-10T00:28:59.609Z,11.64
2023-05-10T00:30:01.698Z,11.75
2023-05-10T00:31:04.685Z,11.81
2023-05-10T00:32:07.037Z,11.78
2023-05-10T00:33:09.375Z,11.75
2023-05-10T00:34:11.237Z,11.78
2023-05-10T00:35:13.104Z,11.83
2023-05-10T00:36:15.042Z,11.97
2023-05-10T00:37:16.927Z,11.83
2023-05-10T00:38:19.198Z,11.69
2023-05-10T00:39:21.129Z,11.81
2023-05-10T00:40:23.720Z,11.88
2023-05-10T00:41:26.135Z,11.78
2023-05-10T00:42:28.076Z,11.87
2023-05-10T00:43:30.912Z,11.81
2023-05-10T00:44:32.835Z,11.91
2023-05-10T00:45:37.586Z,11.80
2023-05-10T00:46:39.629Z,11.84
2023-05-10T00:47:41.925Z,11.90
2023-05-10T00:48:45.698Z,11.98
2023-05-10T00:49:47.605Z,11.93
2023-05-10T00:50:49.768Z,12.05
2023-05-10T00:51:51.699Z,11.98
2023-05-10T00:52:53.769Z,12.03
2023-05-10T00:53:57.066Z,11.98
2023-05-10T00:54:59.389Z,11.94
2023-05-10T00:56:01.526Z,12.02
2023-05-10T00:57:04.272Z,12.02
2023-05-10T00:58:06.680Z,12.17
2023-05-10T00:59:11.526Z,12.16
2023-05-10T01:00:14.146Z,12.05
2023-05-10T01:01:16.298Z,12.10
2023-05-10T01:02:18.312Z,12.15
2023-05-10T01:03:20.459Z,12.09
2023-05-10T01:04:26.676Z,11.96
2023-05-10T01:05:28.785Z,11.88
2023-05-10T01:06:33.305Z,11.78
2023-05-10T01:07:35.165Z,11.81
2023-05-10T01:08:37.949Z,11.87
2023-05-10T01:09:40.262Z,11.91
2023-05-10T01:10:42.955Z,11.91
2023-05-10T01:11:45.582Z,12.08
2023-05-10T01:12:48.324Z,12.09
2023-05-10T01:13:56.700Z,12.11
2023-05-10T01:14:59.061Z,12.03
2023-05-10T01:16:04.190Z,11.99
2023-05-10T01:17:07.496Z,12.06
2023-05-10T01:18:11.039Z,12.03
2023-05-10T01:19:18.206Z,12.16
2023-05-10T01:20:20.811Z,12.33
2023-05-10T01:21:39.467Z,12.26
2023-05-10T01:22:44.275Z,12.21
2023-05-10T01:24:20.454Z,12.33
2023-05-10T01:25:45.162Z,12.32
2023-05-10T01:27:20.881Z,12.21
2023-05-10T01:28:34.568Z,12.39
2023-05-10T01:30:15.509Z,12.32
2023-05-10T01:31:52.232Z,12.37
2023-05-10T01:33:18.611Z,12.32
2023-05-10T01:34:37.057Z,12.16
2023-05-10T01:35:44.145Z,12.25
2023-05-10T01:36:54.003Z,12.19
2023-05-10T01:38:19.841Z,12.24
2023-05-10T01:39:37.444Z,12.34
2023-05-10T01:40:53.377Z,12.31
2023-05-10T01:42:11.441Z,12.29
2023-05-10T01:43:22.484Z,12.28
2023-05-10T01:44:54.340Z,12.27
2023-05-10T01:46:05.732Z,12.26
2023-05-10T01:47:21.243Z,12.37
2023-05-10T01:48:25.600Z,12.33
2023-05-10T01:49:31.832Z,12.37
2023-05-10T01:50:36.541Z,12.28
2023-05-10T01:51:55.794Z,12.46
2023-05-10T01:53:00.289Z,12.48
2023-05-10T01:54:04.652Z,12.49
2023-05-10T01:55:10.151Z,12.54
2023-05-10T01:56:13.864Z,12.46
2023-05-10T01:57:18.459Z,12.45
2023-05-10T01:58:26.027Z,12.38
2023-05-10T01:59:37.281Z,12.45
2023-05-10T02:00:45.644Z,12.44
2023-05-10T02:01:49.354Z,12.59
2023-05-10T02:02:53.933Z,12.48
2023-05-10T02:03:58.237Z,12.33
2023-05-10T02:05:00.717Z,12.55
2023-05-10T02:06:04.232Z,12.48
2023-05-10T02:07:08.027Z,12.43
2023-05-10T02:08:11.658Z,12.40
2023-05-10T02:09:15.288Z,12.35
2023-05-10T02:10:18.739Z,12.53
2023-05-10T02:11:23.873Z,12.48
2023-05-10T02:12:28.233Z,12.61
2023-05-10T02:13:32.798Z,12.59
2023-05-10T02:14:37.941Z,12.52
2023-05-10T02:15:42.549Z,12.55
2023-05-10T02:16:46.104Z,12.44
2023-05-10T02:17:48.721Z,12.38
2023-05-10T02:18:53.185Z,12.41
2023-05-10T02:19:57.446Z,12.41
2023-05-10T02:21:01.250Z,12.34
2023-05-10T02:22:04.418Z,12.55
2023-05-10T02:23:09.551Z,12.66
2023-05-10T02:24:12.764Z,12.75
2023-05-10T02:25:16.693Z,12.74
2023-05-10T02:26:22.043Z,12.52
2023-05-10T02:27:26.648Z,12.53
2023-05-10T02:28:30.261Z,12.51
2023-05-10T02:29:33.718Z,12.60
2023-05-10T02:30:36.854Z,12.66
2023-05-10T02:31:40.024Z,12.67
2023-05-10T02:32:44.018Z,12.58
2023-05-10T02:33:48.294Z,12.50
2023-05-10T02:34:52.968Z,12.56
2023-05-10T02:35:57.056Z,12.50
2023-05-10T02:37:00.813Z,12.40
2023-05-10T02:38:03.469Z,12.26
2023-05-10T02:39:10.383Z,12.24
2023-05-10T02:40:14.022Z,12.26
2023-05-10T02:41:16.345Z,12.23
2023-05-10T02:42:24.601Z,12.24
2023-05-10T02:43:27.136Z,12.20
2023-05-10T02:44:32.064Z,12.23
2023-05-10T02:45:37.459Z,12.30
2023-05-10T02:46:39.566Z,12.32
2023-05-10T02:47:42.153Z,12.24
2023-05-10T02:48:44.179Z,12.30
2023-05-10T02:49:46.713Z,12.32
2023-05-10T02:50:52.468Z,12.23
2023-05-10T02:52:00.978Z,12.20
2023-05-10T02:53:10.583Z,12.18
2023-05-10T02:54:16.507Z,12.14
2023-05-10T02:55:22.389Z,12.22
2023-05-10T02:56:34.223Z,12.04
2023-05-10T02:57:42.109Z,11.98
2023-05-10T02:58:44.372Z,12.07
2023-05-10T02:59:47.066Z,12.07
2023-05-10T03:00:49.097Z,12.11
2023-05-10T03:01:51.141Z,12.25
2023-05-10T03:02:53.832Z,12.21
2023-05-10T03:03:56.452Z,12.07
2023-05-10T03:04:58.387Z,12.10
2023-05-10T03:06:00.680Z,12.12
2023-05-10T03:07:03.633Z,12.07
2023-05-10T03:08:05.942Z,11.97
2023-05-10T03:09:10.339Z,12.02
2023-05-10T03:10:12.892Z,12.06
2023-05-10T03:11:36.758Z,11.99
2023-05-10T03:12:57.870Z,12.02
2023-05-10T03:14:41.064Z,12.05
2023-05-10T03:16:03.699Z,12.18
2023-05-10T03:17:42.660Z,11.88
2023-05-10T03:18:56.905Z,11.89
2023-05-10T03:20:04.265Z,11.83
2023-05-10T03:21:11.652Z,11.78
2023-05-10T03:22:32.086Z,11.89
2023-05-10T03:23:41.516Z,11.70
2023-05-10T03:24:45.680Z,11.53
2023-05-10T03:25:49.970Z,11.57
2023-05-10T03:26:55.840Z,11.67
2023-05-10T03:27:59.024Z,11.66
2023-05-10T03:29:02.251Z,11.53
2023-05-10T03:30:06.089Z,11.66
2023-05-10T03:31:08.928Z,11.61
2023-05-10T03:32:12.336Z,11.63
2023-05-10T03:33:14.884Z,11.76
2023-05-10T03:34:17.363Z,11.71
2023-05-10T03:35:19.464Z,11.67
2023-05-10T03:36:21.472Z,11.62
2023-05-10T03:37:23.914Z,11.55
2023-05-10T03:38:26.488Z,11.49
2023-05-10T03:39:29.404Z,11.60
2023-05-10T03:40:33.040Z,11.53
2023-05-10T03:41:35.052Z,11.68
2023-05-10T03:42:37.419Z,11.64
2023-05-10T03:43:39.496Z,11.60
2023-05-10T03:44:41.433Z,11.53
2023-05-10T03:45:44.348Z,11.50
2023-05-10T03:46:46.604Z,11.53
2023-05-10T03:47:48.848Z,11.50
2023-05-10T03:48:50.717Z,11.58
2023-05-10T03:49:52.922Z,11.58
2023-05-10T03:50:54.788Z,11.62
2023-05-10T03:51:56.721Z,11.58
2023-05-10T03:52:58.893Z,11.59
2023-05-10T03:54:02.533Z,11.55
2023-05-10T03:55:04.758Z,11.36
2023-05-10T03:56:06.772Z,11.42
2023-05-10T03:57:08.656Z,11.48
2023-05-10T03:58:13.787Z,11.37
2023-05-10T03:59:16.043Z,11.42
2023-05-10T04:00:18.731Z,11.41
2023-05-10T04:01:24.655Z,11.39
2023-05-10T04:02:26.819Z,11.44
2023-05-10T04:03:29.143Z,11.46
2023-05-10T04:04:31.035Z,11.51
2023-05-10T04:05:33.715Z,11.59
2023-05-10T04:06:36.182Z,11.74
2023-05-10T04:07:38.111Z,11.68
2023-05-10T04:08:40.043Z,11.65
2023-05-10T04:09:42.009Z,11.63
2023-05-10T04:10:43.916Z,11.66
2023-05-10T04:11:46.055Z,11.60
2023-05-10T04:12:47.906Z,11.51
2023-05-10T04:13:49.790Z,11.55
2023-05-10T04:14:52.044Z,11.53
2023-05-10T04:15:53.890Z,11.46
2023-05-10T04:16:56.349Z,11.56
2023-05-10T04:17:58.711Z,11.62
2023-05-10T04:19:00.989Z,11.66
2023-05-10T04:20:02.919Z,11.60
2023-05-10T04:21:04.720Z,11.60
2023-05-10T04:22:06.872Z,11.61
2023-05-10T04:23:08.794Z,11.52
2023-05-10T04:24:10.740Z,11.65
2023-05-10T04:25:12.611Z,11.53
2023-05-10T04:26:14.723Z,11.59
2023-05-10T04:27:17.062Z,11.67
2023-05-10T04:28:19.122Z,11.70
2023-05-10T04:29:21.456Z,11.77
2023-05-10T04:30:23.330Z,11.86
2023-05-10T04:31:25.303Z,11.68
2023-05-10T04:32:27.789Z,11.78
2023-05-10T04:33:29.761Z,11.64
2023-05-10T04:34:31.618Z,11.72
2023-05-10T04:35:33.599Z,11.85
2023-05-10T04:36:36.836Z,11.79
2023-05-10T04:37:39.039Z,11.75
2023-05-10T04:38:41.041Z,11.82
2023-05-10T04:39:42.894Z,11.85
2023-05-10T04:40:44.920Z,11.87
2023-05-10T04:41:46.849Z,11.75
2023-05-10T04:42:49.036Z,11.76
2023-05-10T04:43:50.865Z,11.81
2023-05-10T04:44:53.143Z,11.82
2023-05-10T04:45:57.970Z,11.82
2023-05-10T04:47:00.544Z,11.83
2023-05-10T04:48:02.709Z,11.93
2023-05-10T04:49:04.605Z,12.01
2023-05-10T04:50:07.491Z,12.15
2023-05-10T04:51:09.413Z,12.06
2023-05-10T04:52:11.288Z,12.03
2023-05-10T04:53:15.876Z,11.98
2023-05-10T04:54:17.937Z,11.98
2023-05-10T04:55:19.813Z,12.01
2023-05-10T04:56:22.902Z,12.02
2023-05-10T04:57:24.693Z,12.12
2023-05-10T04:58:27.006Z,12.10
2023-05-10T04:59:28.897Z,12.09
2023-05-10T05:00:30.960Z,12.37
2023-05-10T05:01:32.944Z,12.34
2023-05-10T05:02:35.008Z,12.15
2023-05-10T05:03:38.125Z,12.09
2023-05-10T05:04:40.020Z,12.13
2023-05-10T05:05:41.842Z,12.16
2023-05-10T05:06:44.083Z,12.18
2023-05-10T05:07:45.937Z,12.21
2023-05-10T05:08:48.117Z,12.11
2023-05-10T05:09:50.019Z,12.15
2023-05-10T05:10:51.866Z,12.21
2023-05-10T05:11:53.782Z,12.14
2023-05-10T05:12:55.722Z,12.23
2023-05-10T05:14:00.070Z,12.33
2023-05-10T05:15:04.200Z,12.36
2023-05-10T05:16:06.649Z,12.28
2023-05-10T05:17:09.142Z,12.31
2023-05-10T05:18:11.331Z,12.45
2023-05-10T05:19:13.454Z,12.60
2023-05-10T05:20:15.842Z,12.69
2023-05-10T05:21:18.659Z,12.71
2023-05-10T05:22:27.894Z,12.87
2023-05-10T05:23:29.744Z,12.84
2023-05-10T05:24:37.462Z,12.94
2023-05-10T05:25:39.682Z,13.03
2023-05-10T05:26:41.605Z,13.10
2023-05-10T05:27:43.443Z,13.09
2023-05-10T05:28:45.311Z,12.99
2023-05-10T05:29:47.688Z,13.00
2023-05-10T05:30:49.595Z,13.08
2023-05-10T05:31:53.416Z,13.03
2023-05-10T05:32:57.682Z,13.10
2023-05-10T05:33:59.601Z,13.26
2023-05-10T05:35:01.831Z,13.39
2023-05-10T05:36:05.602Z,13.35
2023-05-10T05:37:07.421Z,13.42
2023-05-10T05:38:09.503Z,13.38
2023-05-10T05:39:11.316Z,13.27
2023-05-10T05:40:15.005Z,13.16
2023-05-10T05:41:16.827Z,13.34
2023-05-10T05:42:19.885Z,13.32
2023-05-10T05:43:21.800Z,13.33
2023-05-10T05:44:23.666Z,13.46
2023-05-10T05:45:25.867Z,13.53
2023-05-10T05:46:27.927Z,13.61
2023-05-10T05:47:29.829Z,13.80
2023-05-10T05:48:32.615Z,13.66
2023-05-10T05:49:34.506Z,13.78
2023-05-10T05:50:36.660Z,13.93
2023-05-10T05:51:38.540Z,14.03
2023-05-10T05:52:40.599Z,14.02
2023-05-10T05:53:42.404Z,14.15
2023-05-10T05:54:44.842Z,14.27
2023-05-10T05:55:55.290Z,14.27
2023-05-10T05:57:03.003Z,14.16
2023-05-10T05:58:04.815Z,14.33
2023-05-10T05:59:07.216Z,14.31
2023-05-10T06:00:09.908Z,14.37
2023-05-10T06:01:14.500Z,14.35
2023-05-10T06:02:16.665Z,14.47
2023-05-10T06:03:19.352Z,14.34
2023-05-10T06:04:21.316Z,14.32
2023-05-10T06:05:23.327Z,14.39
2023-05-10T06:06:25.175Z,14.50
2023-05-10T06:07:27.553Z,14.52
2023-05-10T06:08:29.396Z,14.50
2023-05-10T06:09:31.318Z,14.51
2023-05-10T06:10:33.187Z,14.70
2023-05-10T06:11:35.687Z,14.60
2023-05-10T06:12:37.856Z,14.30
2023-05-10T06:13:39.729Z,14.34
2023-05-10T06:14:41.758Z,14.39
2023-05-10T06:15:43.706Z,14.60
2023-05-10T06:16:45.606Z,14.70
2023-05-10T06:17:50.153Z,14.81
2023-05-10T06:18:52.179Z,14.50
2023-05-10T06:19:54.137Z,14.59
2023-05-10T06:20:56.051Z,14.71
2023-05-10T06:21:57.879Z,14.80
2023-05-10T06:23:00.064Z,14.87
2023-05-10T06:24:01.965Z,14.75
2023-05-10T06:25:04.026Z,14.83
2023-05-10T06:26:05.902Z,14.87
2023-05-10T06:27:07.796Z,14.65
2023-05-10T06:28:10.074Z,14.60
2023-05-10T06:29:11.951Z,14.82
2023-05-10T06:30:16.247Z,14.97
2023-05-10T06:31:18.790Z,15.51
2023-05-10T06:32:20.681Z,15.72
2023-05-10T06:33:23.082Z,15.31
2023-05-10T06:34:25.208Z,15.51
2023-05-10T06:35:27.158Z,15.52
2023-05-10T06:36:29.399Z,15.75
2023-05-10T06:37:31.286Z,15.67
2023-05-10T06:38:34.329Z,15.56
2023-05-10T06:39:36.142Z,15.70
2023-05-10T06:40:38.024Z,15.84
2023-05-10T06:41:39.860Z,15.85
2023-05-10T06:42:41.824Z,16.02
2023-05-10T06:43:44.575Z,16.16
2023-05-10T06:44:46.431Z,16.21
2023-05-10T06:45:49.527Z,15.96
2023-05-10T06:46:52.154Z,16.21
2023-05-10T06:47:54.198Z,16.27
2023-05-10T06:48:56.345Z,16.58
2023-05-10T06:49:58.367Z,16.96
2023-05-10T06:51:00.349Z,16.43
2023-05-10T06:52:02.295Z,15.97
2023-05-10T06:53:04.812Z,15.90
2023-05-10T06:54:07.229Z,16.01
2023-05-10T06:55:09.811Z,15.84
2023-05-10T06:56:11.730Z,15.92
2023-05-10T06:57:27.607Z,16.10
2023-05-10T06:58:33.789Z,15.97
2023-05-10T06:59:37.486Z,16.17
2023-05-10T07:00:41.614Z,16.28
2023-05-10T07:01:43.859Z,16.26
2023-05-10T07:02:46.210Z,16.21
2023-05-10T07:03:48.147Z,16.31
2023-05-10T07:04:50.359Z,16.11
2023-05-10T07:05:52.230Z,16.19
2023-05-10T07:06:54.171Z,16.20
2023-05-10T07:07:56.018Z,16.23
2023-05-10T07:08:58.136Z,16.26
2023-05-10T07:10:00.551Z,16.34
2023-05-10T07:11:04.460Z,16.41
2023-05-10T07:12:07.859Z,16.40
2023-05-10T07:13:11.642Z,16.29
2023-05-10T07:14:13.630Z,16.37
2023-05-10T07:15:17.136Z,16.33
2023-05-10T07:16:19.612Z,16.27
2023-05-10T07:17:21.544Z,16.20
2023-05-10T07:18:23.462Z,16.14
2023-05-10T07:19:25.349Z,16.00
2023-05-10T07:20:27.611Z,16.16
2023-05-10T07:21:29.870Z,16.10
2023-05-10T07:22:31.813Z,16.35
2023-05-10T07:23:33.964Z,16.35
2023-05-10T07:24:36.215Z,16.63
2023-05-10T07:25:39.300Z,16.86
2023-05-10T07:26:41.102Z,17.04
2023-05-10T07:27:42.970Z,17.40
2023-05-10T07:28:44.845Z,17.60
2023-05-10T07:29:46.894Z,17.60
2023-05-10T07:30:49.173Z,17.23
2023-05-10T07:31:51.185Z,17.29
2023-05-10T07:32:53.142Z,17.03
2023-05-10T07:33:55.067Z,17.06
2023-05-10T07:34:56.932Z,16.98
2023-05-10T07:35:59.091Z,16.60
2023-05-10T07:37:01.193Z,16.65
2023-05-10T07:38:03.098Z,16.61
2023-05-10T07:39:05.103Z,16.54
2023-05-10T07:40:07.784Z,16.63
2023-05-10T07:41:09.927Z,16.81
2023-05-10T07:42:11.880Z,16.97
2023-05-10T07:43:13.684Z,17.21
2023-05-10T07:44:15.763Z,17.29
2023-05-10T07:45:18.047Z,17.33
2023-05-10T07:46:23.210Z,17.44
2023-05-10T07:47:25.136Z,17.74
2023-05-10T07:48:27.281Z,17.89
2023-05-10T07:49:29.336Z,17.85
2023-05-10T07:50:31.414Z,17.57
2023-05-10T07:51:33.798Z,17.32
2023-05-10T07:52:35.628Z,17.29
2023-05-10T07:53:38.498Z,17.26
2023-05-10T07:54:40.382Z,16.96
2023-05-10T07:55:42.209Z,17.09
2023-05-10T07:56:48.282Z,17.14
2023-05-10T07:57:50.386Z,17.24
2023-05-10T07:58:52.986Z,17.09
2023-05-10T07:59:54.868Z,16.96
2023-05-10T08:00:57.458Z,16.79
2023-05-10T08:01:59.847Z,16.66
2023-05-10T08:03:01.990Z,16.58
2023-05-10T08:04:04.308Z,16.61
2023-05-10T08:05:06.779Z,16.77
2023-05-10T08:06:08.640Z,16.66
2023-05-10T08:07:11.733Z,16.69
2023-05-10T08:08:13.618Z,17.08
2023-05-10T08:09:15.493Z,17.17
2023-05-10T08:10:17.856Z,17.55
2023-05-10T08:11:21.466Z,17.20
2023-05-10T08:12:23.662Z,16.78
2023-05-10T08:13:25.540Z,16.49
2023-05-10T08:14:30.043Z,16.31
2023-05-10T08:15:31.943Z,16.53
2023-05-10T08:16:33.851Z,16.76
2023-05-10T08:17:36.087Z,16.78
2023-05-10T08:18:38.632Z,16.97
2023-05-10T08:19:40.593Z,17.33
2023-05-10T08:20:42.545Z,17.54
2023-05-10T08:21:45.544Z,17.76
2023-05-10T08:22:49.946Z,17.62
2023-05-10T08:23:53.095Z,17.44
2023-05-10T08:24:54.933Z,17.14
2023-05-10T08:25:56.799Z,17.08
2023-05-10T08:26:58.628Z,17.14
2023-05-10T08:28:00.731Z,16.97
2023-05-10T08:29:03.060Z,17.25
2023-05-10T08:30:05.341Z,17.29
2023-05-10T08:31:07.375Z,17.55
2023-05-10T08:32:09.375Z,17.50
2023-05-10T08:33:11.760Z,17.58
2023-05-10T08:34:13.741Z,17.68
2023-05-10T08:35:17.072Z,17.59
2023-05-10T08:36:22.626Z,17.40
2023-05-10T08:37:25.154Z,17.26
2023-05-10T08:38:27.555Z,17.19
2023-05-10T08:39:30.660Z,17.05
2023-05-10T08:40:32.850Z,16.78
2023-05-10T08:41:36.786Z,16.48
2023-05-10T08:42:42.778Z,16.46
2023-05-10T08:43:47.262Z,16.57
2023-05-10T08:44:50.350Z,16.93
2023-05-10T08:45:55.208Z,17.13
2023-05-10T08:46:58.086Z,17.36
2023-05-10T08:48:02.894Z,17.52
2023-05-10T08:49:05.395Z,17.52
2023-05-10T08:50:08.065Z,17.38
2023-05-10T08:51:12.490Z,17.24
2023-05-10T08:52:17.365Z,17.24
2023-05-10T08:53:20.928Z,17.33
2023-05-10T08:54:23.986Z,17.34
2023-05-10T08:55:25.871Z,17.33
2023-05-10T08:56:27.788Z,17.64
2023-05-10T08:57:29.714Z,17.53
2023-05-10T08:58:32.132Z,17.55
2023-05-10T08:59:34.328Z,17.42
2023-05-10T09:00:38.208Z,17.33
2023-05-10T09:01:41.400Z,17.40
2023-05-10T09:02:44.186Z,17.80
2023-05-10T09:03:47.483Z,17.93
2023-05-10T09:04:50.252Z,18.01
2023-05-10T09:05:52.525Z,18.13
2023-05-10T09:06:55.474Z,18.00
2023-05-10T09:07:57.423Z,17.91
2023-05-10T09:08:59.691Z,17.78
2023-05-10T09:10:01.965Z,17.88
2023-05-10T09:11:04.036Z,17.93
2023-05-10T09:12:07.414Z,18.09
2023-05-10T09:13:11.421Z,18.28
2023-05-10T09:14:14.044Z,18.27
2023-05-10T09:15:17.211Z,18.42
2023-05-10T09:16:21.804Z,18.50
2023-05-10T09:17:26.841Z,18.43
2023-05-10T09:18:28.744Z,18.57
2023-05-10T09:19:30.700Z,18.89
2023-05-10T09:20:32.856Z,18.79
2023-05-10T09:21:39.216Z,18.71
2023-05-10T09:22:41.206Z,18.79
2023-05-10T09:23:48.685Z,18.89
2023-05-10T09:25:05.035Z,19.35
2023-05-10T09:26:08.126Z,19.39
2023-05-10T09:27:10.727Z,18.99
2023-05-10T09:28:12.997Z,19.12
2023-05-10T09:29:17.329Z,18.85
2023-05-10T09:30:27.450Z,18.78
2023-05-10T09:31:45.761Z,18.67
2023-05-10T09:32:49.207Z,18.67
2023-05-10T09:33:51.886Z,18.62
2023-05-10T09:34:53.858Z,18.20
2023-05-10T09:35:55.822Z,18.15
2023-05-10T09:37:02.042Z,18.17
2023-05-10T09:38:05.442Z,17.95
2023-05-10T09:39:07.304Z,17.87
2023-05-10T09:40:13.615Z,17.89
2023-05-10T09:41:21.094Z,17.89
2023-05-10T09:42:24.020Z,17.85
2023-05-10T09:43:25.983Z,17.79
2023-05-10T09:44:28.269Z,17.99
2023-05-10T09:45:31.926Z,18.13
2023-05-10T09:46:37.205Z,18.02
2023-05-10T09:47:39.594Z,18.05
2023-05-10T09:48:48.950Z,18.33
2023-05-10T09:49:52.200Z,18.58
2023-05-10T09:50:59.962Z,18.47
2023-05-10T09:52:06.652Z,18.31
2023-05-10T09:53:08.802Z,17.89
2023-05-10T09:54:11.747Z,17.84
2023-05-10T09:55:13.903Z,17.90
2023-05-10T09:56:35.205Z,18.17
2023-05-10T09:57:37.137Z,18.42
2023-05-10T09:58:39.359Z,18.37
2023-05-10T09:59:44.080Z,18.26
2023-05-10T10:00:49.002Z,18.33
2023-05-10T10:01:52.373Z,18.39
2023-05-10T10:02:59.195Z,18.58
2023-05-10T10:04:04.845Z,18.60
2023-05-10T10:05:08.340Z,18.87
2023-05-10T10:06:18.896Z,19.03
2023-05-10T10:07:26.583Z,19.03
2023-05-10T10:08:28.952Z,19.39
2023-05-10T10:09:31.555Z,19.56
2023-05-10T10:10:34.652Z,19.40
2023-05-10T10:11:38.945Z,19.20
2023-05-10T10:12:42.197Z,19.18
2023-05-10T10:13:44.452Z,19.36
2023-05-10T10:14:48.291Z,19.49
2023-05-10T10:15:52.212Z,19.23
2023-05-10T10:17:06.758Z,19.40
2023-05-10T10:18:14.188Z,19.28
2023-05-10T10:19:16.406Z,19.20
2023-05-10T10:20:20.126Z,19.11
2023-05-10T10:21:23.323Z,19.08
2023-05-10T10:22:25.247Z,19.00
2023-05-10T10:23:28.422Z,19.26
2023-05-10T10:24:30.375Z,19.74
2023-05-10T10:25:32.702Z,19.78
2023-05-10T10:26:37.276Z,19.80
2023-05-10T10:27:44.425Z,20.06
2023-05-10T10:29:06.575Z,19.69
2023-05-10T10:30:23.493Z,19.66
2023-05-10T10:31:43.060Z,19.14
2023-05-10T10:32:47.679Z,19.07
2023-05-10T10:34:00.967Z,19.18
2023-05-10T10:35:03.146Z,19.40
2023-05-10T10:36:05.728Z,19.45
2023-05-10T10:37:09.239Z,19.64
2023-05-10T10:38:13.928Z,19.82
2023-05-10T10:39:17.020Z,19.92
2023-05-10T10:40:27.991Z,19.83
2023-05-10T10:41:38.163Z,19.92
2023-05-10T10:42:47.313Z,19.75
2023-05-10T10:43:49.160Z,19.48
2023-05-10T10:45:12.966Z,19.58
2023-05-10T10:46:17.883Z,19.70
2023-05-10T10:47:24.157Z,19.77
2023-05-10T10:48:26.207Z,19.78
2023-05-10T10:49:28.378Z,19.98
2023-05-10T10:50:30.543Z,20.14
2023-05-10T10:51:32.505Z,20.29
2023-05-10T10:52:44.287Z,20.22
2023-05-10T10:53:49.288Z,19.94
2023-05-10T10:54:52.711Z,19.84
2023-05-10T10:56:07.947Z,20.07
2023-05-10T10:57:14.594Z,20.44
2023-05-10T10:58:33.179Z,20.51
2023-05-10T10:59:35.009Z,20.32
2023-05-10T11:00:38.860Z,20.59
2023-05-10T11:01:45.488Z,20.64
2023-05-10T11:03:15.903Z,20.58
2023-05-10T11:04:19.358Z,20.64
2023-05-10T11:05:38.483Z,21.01
2023-05-10T11:06:41.222Z,21.13
2023-05-10T11:07:54.996Z,21.15
2023-05-10T11:08:56.955Z,21.21
2023-05-10T11:10:05.909Z,21.19
2023-05-10T11:11:08.453Z,20.88
2023-05-10T11:12:10.522Z,20.68
2023-05-10T11:13:12.651Z,20.08
2023-05-10T11:14:14.578Z,19.91
2023-05-10T11:15:16.734Z,19.63
2023-05-10T11:16:24.429Z,19.55
2023-05-10T11:17:30.128Z,19.38
2023-05-10T11:18:32.445Z,19.41
2023-05-10T11:19:34.497Z,19.36
2023-05-10T11:20:42.342Z,19.46
2023-05-10T11:21:51.292Z,19.39
2023-05-10T11:22:54.184Z,19.23
2023-05-10T11:23:58.463Z,19.30
2023-05-10T11:25:00.691Z,19.26
2023-05-10T11:26:02.961Z,19.17
2023-05-10T11:27:04.962Z,19.16
2023-05-10T11:28:07.773Z,19.17
2023-05-10T11:29:10.364Z,19.25
2023-05-10T11:30:12.938Z,19.27
2023-05-10T11:31:16.330Z,19.33
2023-05-10T11:32:18.508Z,19.19
2023-05-10T11:33:21.091Z,19.34
2023-05-10T11:34:36.589Z,19.42
2023-05-10T11:35:43.581Z,19.49
2023-05-10T11:36:54.806Z,19.38
2023-05-10T11:37:56.826Z,19.57
2023-05-10T11:38:58.702Z,19.84
2023-05-10T11:40:01.101Z,19.85
2023-05-10T11:41:02.930Z,19.88
2023-05-10T11:42:07.588Z,19.96
2023-05-10T11:43:11.459Z,20.09
2023-05-10T11:44:13.397Z,20.08
2023-05-10T11:45:15.629Z,20.18
2023-05-10T11:46:21.394Z,20.12
2023-05-10T11:47:23.346Z,20.08
2023-05-10T11:48:25.310Z,20.37
2023-05-10T11:49:27.513Z,20.39
2023-05-10T11:50:30.076Z,20.34
2023-05-10T11:51:36.708Z,20.35
2023-05-10T11:52:38.808Z,20.35
2023-05-10T11:53:40.708Z,20.35
2023-05-10T11:54:51.845Z,20.17
2023-05-10T11:55:54.124Z,20.25
2023-05-10T11:56:56.059Z,20.32
2023-05-10T11:58:03.628Z,20.42
2023-05-10T11:59:05.536Z,20.38
2023-05-10T12:00:08.125Z,20.50
2023-05-10T12:01:11.296Z,20.32
2023-05-10T12:02:16.390Z,20.21
2023-05-10T12:03:18.417Z,20.01
2023-05-10T12:04:21.076Z,20.04
2023-05-10T12:05:23.481Z,20.02
2023-05-10T12:06:27.930Z,19.88
2023-05-10T12:07:30.452Z,20.14
2023-05-10T12:08:32.252Z,20.15
2023-05-10T12:09:43.315Z,20.13
2023-05-10T12:10:46.172Z,20.09
2023-05-10T12:11:50.432Z,20.17
2023-05-10T12:12:53.528Z,20.03
2023-05-10T12:14:01.135Z,20.03
2023-05-10T12:15:04.300Z,20.08
2023-05-10T12:16:22.524Z,20.02
2023-05-10T12:17:28.771Z,19.92
2023-05-10T12:18:31.021Z,19.90
2023-05-10T12:19:39.722Z,20.18
2023-05-10T12:20:43.475Z,20.31
2023-05-10T12:21:45.439Z,20.22
2023-05-10T12:23:00.302Z,20.38
2023-05-10T12:24:04.831Z,20.48
2023-05-10T12:25:09.112Z,20.45
2023-05-10T12:26:11.417Z,20.47
2023-05-10T12:27:13.735Z,20.32
2023-05-10T12:28:15.564Z,19.99
2023-05-10T12:29:19.972Z,20.01
2023-05-10T12:30:23.063Z,20.25
2023-05-10T12:31:24.930Z,20.05
2023-05-10T12:32:40.924Z,19.96
2023-05-10T12:33:44.556Z,19.89
2023-05-10T12:34:48.516Z,19.66
2023-05-10T12:35:52.966Z,19.67
2023-05-10T12:36:55.679Z,19.53
2023-05-10T12:37:57.582Z,19.47
2023-05-10T12:39:05.922Z,19.45
2023-05-10T12:40:10.122Z,19.50
2023-05-10T12:41:14.068Z,19.45
2023-05-10T12:42:16.075Z,19.41
2023-05-10T12:43:17.916Z,19.45
2023-05-10T12:44:20.106Z,19.57
2023-05-10T12:45:23.088Z,19.48
2023-05-10T12:46:26.344Z,19.64
2023-05-10T12:47:28.338Z,19.52
2023-05-10T12:48:32.085Z,19.49
2023-05-10T12:49:35.026Z,19.61
2023-05-10T12:50:37.310Z,19.52
2023-05-10T12:51:40.690Z,19.43
2023-05-10T12:52:43.022Z,19.43
2023-05-10T12:53:48.740Z,19.54
2023-05-10T12:54:51.818Z,19.69
2023-05-10T12:55:55.417Z,19.62
2023-05-10T12:56:57.427Z,19.60
2023-05-10T12:57:59.230Z,19.71
2023-05-10T12:59:01.125Z,20.03
2023-05-10T13:00:03.463Z,20.04
2023-05-10T13:01:06.562Z,19.85
2023-05-10T13:02:08.518Z,19.67
2023-05-10T13:03:11.001Z,19.63
2023-05-10T13:04:12.860Z,19.72
2023-05-10T13:05:14.803Z,19.83
2023-05-10T13:06:17.065Z,19.80
2023-05-10T13:07:19.039Z,19.86
2023-05-10T13:08:20.921Z,19.88
2023-05-10T13:09:22.808Z,19.73
2023-05-10T13:10:24.910Z,19.71
2023-05-10T13:11:27.267Z,19.64
2023-05-10T13:12:29.089Z,19.66
2023-05-10T13:13:30.927Z,19.67
2023-05-10T13:14:32.745Z,19.64
2023-05-10T13:15:34.802Z,19.76
2023-05-10T13:16:37.062Z,20.01
2023-05-10T13:17:39.964Z,20.10
2023-05-10T13:18:41.899Z,20.18
2023-05-10T13:19:43.715Z,20.44
2023-05-10T13:20:45.795Z,20.70
2023-05-10T13:21:48.130Z,20.71
2023-05-10T13:22:50.628Z,20.57
2023-05-10T13:23:54.370Z,20.49
2023-05-10T13:24:56.205Z,20.47
2023-05-10T13:25:58.384Z,20.56
2023-05-10T13:27:00.909Z,20.61
2023-05-10T13:28:03.461Z,20.70
2023-05-10T13:29:05.377Z,20.52
2023-05-10T13:30:08.927Z,20.46
2023-05-10T13:31:11.359Z,20.47
2023-05-10T13:32:13.584Z,20.44
2023-05-10T13:33:15.493Z,20.29
2023-05-10T13:34:17.821Z,20.20
2023-05-10T13:35:19.615Z,19.88
2023-05-10T13:36:21.528Z,19.87
2023-05-10T13:37:23.798Z,19.99
2023-05-10T13:38:25.790Z,20.13
2023-05-10T13:39:27.722Z,20.08
2023-05-10T13:40:29.684Z,20.03
2023-05-10T13:41:31.532Z,20.12
2023-05-10T13:42:34.520Z,20.28
2023-05-10T13:43:37.119Z,20.28
2023-05-10T13:44:39.807Z,20.46
2023-05-10T13:45:41.863Z,20.61
2023-05-10T13:46:44.443Z,20.76